Time;durP1;ratioP1;P1;durP2;ratioP2;P2;SDS_P1;SDS_P2;PMS_P1;PMS_P2;Temp;Humidity;BMP_temperature;BMP_pressure;BME280_temperature;BME280_humidity;BME280_pressure;Samples;Min_cycle;Max_cycle;Signal;HPM_P1;HPM_P2
2022/05/18 00:00:33;;;;;;;0.20;0.20;;;17.50;99.90;;;;;;5024227;28;20042;-81
2022/05/18 00:03:04;;;;;;;0.25;0.25;;;17.40;99.90;;;;;;5022517;28;20045;-81
2022/05/18 00:05:32;;;;;;;0.20;0.20;;;17.40;99.90;;;;;;5007632;28;20050;-82
2022/05/18 00:07:58;;;;;;;0.15;0.15;;;17.30;99.90;;;;;;5007205;28;20049;-81
2022/05/18 00:10:24;;;;;;;0.25;0.25;;;17.40;99.90;;;;;;4991138;28;20045;-82
2022/05/18 00:12:49;;;;;;;0.40;0.40;;;17.30;99.90;;;;;;5006341;28;20798;-82
2022/05/18 00:15:18;;;;;;;0.40;0.35;;;17.30;99.90;;;;;;5023623;28;20040;-85
2022/05/18 00:17:44;;;;;;;0.20;0.20;;;17.30;99.90;;;;;;5008762;28;20045;-86
2022/05/18 00:20:11;;;;;;;0.63;0.63;;;17.20;99.90;;;;;;5007648;28;20049;-86
2022/05/18 00:22:47;;;;;;;0.10;0.10;;;17.20;99.90;;;;;;4991647;28;20077;-86
2022/05/18 00:25:15;;;;;;;0.10;0.10;;;17.20;99.90;;;;;;4992577;28;20107;-86
2022/05/18 00:27:41;;;;;;;0.47;0.47;;;17.20;99.90;;;;;;5022842;28;20539;-86
2022/05/18 00:30:08;;;;;;;0.25;0.25;;;17.20;99.90;;;;;;5006555;28;20136;-86
2022/05/18 00:32:33;;;;;;;0.38;0.38;;;17.20;99.90;;;;;;5023383;28;20046;-86
2022/05/18 00:34:59;;;;;;;0.10;0.10;;;17.10;99.90;;;;;;4982188;28;20057;-85
2022/05/18 00:37:25;;;;;;;0.55;0.45;;;17.10;99.90;;;;;;4982805;28;20046;-86
2022/05/18 00:39:50;;;;;;;0.30;0.30;;;17.10;99.90;;;;;;4984906;28;20047;-86
2022/05/18 00:42:22;;;;;;;1.35;0.52;;;17.10;99.90;;;;;;4983763;28;20461;-86
2022/05/18 00:44:48;;;;;;;0.75;0.75;;;17.10;99.90;;;;;;5001428;28;20042;-86
2022/05/18 00:47:14;;;;;;;0.10;0.10;;;17.00;99.90;;;;;;4982636;28;20038;-86
2022/05/18 00:49:43;;;;;;;0.08;0.08;;;17.00;99.90;;;;;;4968630;28;20038;-82
2022/05/18 00:52:09;;;;;;;1.10;1.05;;;17.00;99.90;;;;;;4999551;28;20084;-82
2022/05/18 00:54:36;;;;;;;0.30;0.30;;;17.00;99.90;;;;;;4998527;28;20507;-82
2022/05/18 00:57:14;;;;;;;0.10;0.10;;;17.00;99.90;;;;;;4999833;28;20114;-83
2022/05/18 00:59:52;;;;;;;0.20;0.17;;;16.90;99.90;;;;;;4984861;28;20042;-83
2022/05/18 01:02:19;;;;;;;0.22;0.17;;;16.90;99.90;;;;;;4984024;28;20860;-82
2022/05/18 01:04:48;;;;;;;0.20;0.20;;;16.90;99.90;;;;;;4986969;28;20125;-82
2022/05/18 01:07:23;;;;;;;0.28;0.28;;;16.90;99.90;;;;;;5001434;28;20042;-81
2022/05/18 01:09:50;;;;;;;0.40;0.40;;;16.90;99.90;;;;;;4987923;28;20050;-82
2022/05/18 01:12:18;;;;;;;0.47;0.38;;;16.90;99.90;;;;;;4952622;28;20051;-82
2022/05/18 01:14:46;;;;;;;0.10;0.10;;;16.80;99.90;;;;;;4972362;28;20125;-81
2022/05/18 01:17:16;;;;;;;0.70;0.38;;;16.80;99.90;;;;;;5003316;28;20173;-82
2022/05/18 01:19:44;;;;;;;0.10;0.10;;;16.80;99.90;;;;;;4987047;28;20137;-81
2022/05/18 01:22:30;;;;;;;0.20;0.20;;;16.70;99.90;;;;;;4986172;28;20050;-82
2022/05/18 01:25:02;;;;;;;0.63;0.63;;;16.70;99.90;;;;;;4985320;28;20855;-82
2022/05/18 01:27:28;;;;;;;0.25;0.25;;;16.70;99.90;;;;;;4968857;28;20092;-82
2022/05/18 01:29:55;;;;;;;1.02;0.55;;;16.60;99.90;;;;;;4987339;28;20488;-82
2022/05/18 01:32:21;;;;;;;0.30;0.30;;;16.60;99.90;;;;;;4986226;28;20053;-82
2022/05/18 01:34:46;;;;;;;0.10;0.10;;;16.50;99.90;;;;;;4994995;28;20046;-83
2022/05/18 01:37:14;;;;;;;0.22;0.15;;;16.40;99.90;;;;;;5022391;28;20068;-82
2022/05/18 01:39:51;;;;;;;0.35;0.35;;;16.30;99.90;;;;;;5021594;28;20687;-80
2022/05/18 01:42:40;;;;;;;0.75;0.55;;;16.30;99.90;;;;;;5005467;28;20065;-79
2022/05/18 01:45:06;;;;;;;0.40;0.25;;;16.20;99.90;;;;;;5004516;28;20120;-80
2022/05/18 01:47:37;;;;;;;0.75;0.28;;;16.10;99.90;;;;;;5004783;28;20554;-80
2022/05/18 01:50:12;;;;;;;0.35;0.35;;;16.10;99.90;;;;;;5005595;28;20100;-80
2022/05/18 01:52:38;;;;;;;0.13;0.13;;;16.00;99.90;;;;;;5004686;28;20040;-80
2022/05/18 01:55:06;;;;;;;0.00;0.00;;;15.90;99.90;;;;;;5004258;28;20045;-80
2022/05/18 01:57:34;;;;;;;0.10;0.10;;;15.90;99.90;;;;;;4991483;28;20443;-86
2022/05/18 02:00:00;;;;;;;0.38;0.38;;;15.80;99.90;;;;;;4983635;28;20052;-86
2022/05/18 02:02:26;;;;;;;0.00;0.00;;;15.70;99.90;;;;;;5006195;28;20046;-86
2022/05/18 02:04:52;;;;;;;0.30;0.30;;;15.70;99.90;;;;;;5005145;28;20038;-86
2022/05/18 02:07:17;;;;;;;0.00;0.00;;;15.60;99.90;;;;;;5021941;28;20468;-86
2022/05/18 02:09:43;;;;;;;0.20;0.20;;;15.50;99.90;;;;;;4990129;28;20055;-86
2022/05/18 02:12:11;;;;;;;0.10;0.10;;;15.50;99.90;;;;;;4987905;28;20042;-80
2022/05/18 02:14:37;;;;;;;0.70;0.32;;;15.50;99.90;;;;;;4987079;28;20042;-79
2022/05/18 02:17:03;;;;;;;0.00;0.00;;;15.50;99.90;;;;;;5004371;28;20045;-79
2022/05/18 02:19:29;;;;;;;0.10;0.10;;;15.50;99.90;;;;;;5020932;28;20077;-79
2022/05/18 02:21:55;;;;;;;0.30;0.30;;;15.40;99.90;;;;;;4987824;28;20158;-79
2022/05/18 02:24:21;;;;;;;0.30;0.30;;;15.40;99.90;;;;;;4988425;28;20046;-80
2022/05/18 02:26:47;;;;;;;1.02;0.63;;;15.30;99.90;;;;;;5005360;28;20081;-79
2022/05/18 02:29:13;;;;;;;0.00;0.00;;;15.30;99.90;;;;;;5004110;28;20408;-85
2022/05/18 02:31:39;;;;;;;0.35;0.35;;;15.20;99.90;;;;;;5000342;28;20042;-86
2022/05/18 02:34:04;;;;;;;0.20;0.20;;;15.10;99.90;;;;;;5018523;28;20104;-86
2022/05/18 02:36:30;;;;;;;0.10;0.10;;;15.10;99.90;;;;;;5019175;28;20510;-86
2022/05/18 02:38:56;;;;;;;12.30;3.53;;;15.00;99.90;;;;;;4985366;28;20069;-86
2022/05/18 02:41:22;;;;;;;0.13;0.13;;;15.00;99.90;;;;;;5001086;28;20076;-86
2022/05/18 02:43:48;;;;;;;0.00;0.00;;;14.80;99.90;;;;;;5019324;28;20100;-86
2022/05/18 02:46:18;;;;;;;0.55;0.32;;;14.80;99.90;;;;;;4980459;28;20060;-79
2022/05/18 02:48:45;;;;;;;0.00;0.00;;;14.70;99.90;;;;;;4980468;28;20383;-80
2022/05/18 02:51:12;;;;;;;3.00;1.08;;;14.70;99.90;;;;;;5000037;28;20048;-80
2022/05/18 02:53:38;;;;;;;0.20;0.20;;;14.60;99.90;;;;;;5000147;28;20042;-79
2022/05/18 02:56:06;;;;;;;0.00;0.00;;;14.60;99.90;;;;;;5018094;28;20177;-80
2022/05/18 02:58:44;;;;;;;0.10;0.10;;;14.60;99.90;;;;;;5016791;28;20506;-80
2022/05/18 03:01:16;;;;;;;0.20;0.20;;;14.60;99.90;;;;;;5018753;28;20046;-80
2022/05/18 03:03:41;;;;;;;0.00;0.00;;;14.50;99.90;;;;;;5018153;28;20123;-86
2022/05/18 03:06:09;;;;;;;0.00;0.00;;;14.50;99.90;;;;;;4986652;28;20124;-86
2022/05/18 03:08:38;;;;;;;1.35;0.75;;;14.50;99.90;;;;;;5000273;28;20048;-85
2022/05/18 03:11:04;;;;;;;0.08;0.03;;;14.50;99.90;;;;;;4985997;28;20536;-85
2022/05/18 03:13:30;;;;;;;0.70;0.40;;;14.50;99.90;;;;;;4981548;28;20050;-85
2022/05/18 03:15:56;;;;;;;0.63;0.43;;;14.50;99.90;;;;;;4999094;28;20038;-86
2022/05/18 03:18:23;;;;;;;0.20;0.20;;;14.60;99.90;;;;;;4985090;28;20530;-86
2022/05/18 03:23:36;;;;;;;0.65;0.52;;;14.60;99.90;;;;;;5000026;28;20053;-82
2022/05/18 03:26:06;;;;;;;0.20;0.20;;;14.60;99.90;;;;;;5002570;28;20046;-82
2022/05/18 03:28:33;;;;;;;0.40;0.40;;;14.60;99.90;;;;;;5019708;28;20054;-82
2022/05/18 03:30:59;;;;;;;0.10;0.10;;;14.60;99.90;;;;;;5019462;28;20045;-82
2022/05/18 03:33:25;;;;;;;0.10;0.10;;;14.60;99.90;;;;;;4980061;28;20042;-82
2022/05/18 03:35:52;;;;;;;0.10;0.10;;;14.50;99.90;;;;;;4981488;28;20413;-81
2022/05/18 03:38:19;;;;;;;1.45;0.40;;;14.50;99.90;;;;;;4964966;28;20042;-81
2022/05/18 03:40:45;;;;;;;0.20;0.20;;;14.60;99.90;;;;;;4983545;28;20111;-81
2022/05/18 03:43:11;;;;;;;0.20;0.20;;;14.60;99.90;;;;;;4982359;28;20046;-81
2022/05/18 03:45:38;;;;;;;0.28;0.28;;;14.60;99.90;;;;;;4965095;28;20048;-81
2022/05/18 03:48:06;;;;;;;0.00;0.00;;;14.60;99.90;;;;;;4980275;28;20050;-81
2022/05/18 03:50:32;;;;;;;0.15;0.15;;;14.60;99.90;;;;;;4977712;28;20172;-81
2022/05/18 03:53:00;;;;;;;0.20;0.20;;;14.60;99.90;;;;;;4980902;28;20042;-79
2022/05/18 03:55:26;;;;;;;0.10;0.10;;;14.60;99.90;;;;;;4980153;28;20644;-80
2022/05/18 03:57:52;;;;;;;0.05;0.05;;;14.60;99.90;;;;;;4980926;28;20427;-80
2022/05/18 04:00:18;;;;;;;0.25;0.25;;;14.70;99.90;;;;;;4964779;28;20038;-79
2022/05/18 04:02:47;;;;;;;0.45;0.45;;;14.70;99.90;;;;;;4963478;28;20237;-79
2022/05/18 04:05:18;;;;;;;0.10;0.10;;;14.70;99.90;;;;;;4998379;28;20075;-80
2022/05/18 04:07:44;;;;;;;0.28;0.22;;;14.80;99.90;;;;;;4979399;28;20053;-80
2022/05/18 04:10:10;;;;;;;0.15;0.15;;;14.80;99.90;;;;;;4962289;28;20046;-81
2022/05/18 04:12:35;;;;;;;0.75;0.40;;;15.00;99.90;;;;;;4967546;28;20065;-81
2022/05/18 04:15:03;;;;;;;0.00;0.00;;;15.00;99.90;;;;;;4984342;28;20039;-81
2022/05/18 04:17:29;;;;;;;0.25;0.25;;;15.10;99.90;;;;;;5000012;28;20188;-81
2022/05/18 04:19:55;;;;;;;0.10;0.10;;;15.10;99.90;;;;;;4967425;28;20145;-81
2022/05/18 04:22:23;;;;;;;0.13;0.13;;;15.20;99.90;;;;;;4983365;28;20129;-81
2022/05/18 04:24:49;;;;;;;0.40;0.40;;;15.20;99.90;;;;;;5000473;28;20077;-81
2022/05/18 04:27:15;;;;;;;0.20;0.20;;;15.30;99.90;;;;;;4984345;28;20177;-85
2022/05/18 04:29:41;;;;;;;0.00;0.00;;;15.30;99.90;;;;;;4984308;28;20038;-86
2022/05/18 04:32:08;;;;;;;1.05;0.90;;;15.40;99.90;;;;;;4985312;28;20050;-86
2022/05/18 04:34:34;;;;;;;2.35;1.58;;;15.40;99.90;;;;;;4993072;28;20058;-86
2022/05/18 04:36:59;;;;;;;0.30;0.30;;;15.50;99.90;;;;;;5019888;28;20115;-86
2022/05/18 04:39:25;;;;;;;0.00;0.00;;;15.50;99.90;;;;;;5002217;28;20045;-86
2022/05/18 04:41:51;;;;;;;0.10;0.10;;;15.60;99.90;;;;;;5002758;28;20038;-86
2022/05/18 04:44:17;;;;;;;0.82;0.63;;;15.80;99.90;;;;;;5005180;28;20056;-86
2022/05/18 04:46:43;;;;;;;1.00;0.85;;;15.90;99.90;;;;;;5003151;28;20076;-85
2022/05/18 04:49:12;;;;;;;0.60;0.57;;;15.90;99.90;;;;;;5014896;23;20492;-80
2022/05/18 04:51:38;;;;;;;0.93;0.50;;;16.10;99.90;;;;;;4987593;28;20506;-80
2022/05/18 04:54:04;;;;;;;1.35;0.80;;;16.10;99.90;;;;;;4985395;28;20046;-79
2022/05/18 04:56:29;;;;;;;1.98;0.35;;;16.10;99.90;;;;;;4987086;28;20044;-80
2022/05/18 04:58:56;;;;;;;0.20;0.20;;;16.20;99.90;;;;;;4993130;28;20080;-85
2022/05/18 05:01:25;;;;;;;0.40;0.40;;;16.20;99.90;;;;;;4987945;28;20502;-85
2022/05/18 05:03:51;;;;;;;0.68;0.63;;;16.30;99.90;;;;;;5002921;28;20080;-86
2022/05/18 05:06:17;;;;;;;0.40;0.40;;;16.30;99.90;;;;;;5004641;28;20050;-86
2022/05/18 05:08:42;;;;;;;0.50;0.45;;;16.20;99.90;;;;;;4993501;28;20403;-85
2022/05/18 05:11:09;;;;;;;0.28;0.28;;;16.20;99.90;;;;;;4988594;28;20121;-85
2022/05/18 05:13:36;;;;;;;0.73;0.73;;;16.10;99.90;;;;;;5005154;28;20052;-86
2022/05/18 05:16:03;;;;;;;0.75;0.65;;;16.20;99.90;;;;;;4988115;28;20049;-81
2022/05/18 05:18:29;;;;;;;0.50;0.50;;;16.30;99.90;;;;;;5005669;28;20029;-81
2022/05/18 05:20:55;;;;;;;0.20;0.20;;;16.60;99.90;;;;;;5006742;28;20034;-81
2022/05/18 05:23:24;;;;;;;0.35;0.22;;;17.00;99.90;;;;;;5006194;28;20057;-82
2022/05/18 05:25:54;;;;;;;0.45;0.43;;;17.40;99.90;;;;;;4991390;28;20046;-81
2022/05/18 05:28:20;;;;;;;0.00;0.00;;;18.00;99.90;;;;;;5005247;28;20506;-82
2022/05/18 05:30:46;;;;;;;0.38;0.30;;;18.50;99.90;;;;;;4993080;28;20038;-82
2022/05/18 05:33:12;;;;;;;1.25;1.08;;;19.00;99.90;;;;;;4989161;28;20529;-85
2022/05/18 05:35:42;;;;;;;0.95;0.88;;;19.50;99.90;;;;;;5004473;28;20074;-85
2022/05/18 05:38:09;;;;;;;0.32;0.32;;;19.90;99.90;;;;;;5003896;28;20046;-86
2022/05/18 05:40:36;;;;;;;0.80;0.80;;;20.40;99.90;;;;;;5003916;28;20045;-85
2022/05/18 05:43:10;;;;;;;0.30;0.30;;;20.80;99.90;;;;;;4986003;28;20049;-86
2022/05/18 05:45:36;;;;;;;0.52;0.45;;;21.20;99.90;;;;;;5003817;28;20103;-85
2022/05/18 05:48:04;;;;;;;0.00;0.00;;;21.40;99.90;;;;;;4972454;28;20133;-85
2022/05/18 05:50:30;;;;;;;0.45;0.30;;;21.50;99.90;;;;;;4982916;28;20096;-85
2022/05/18 05:52:57;;;;;;;0.30;0.30;;;21.50;99.90;;;;;;5003235;28;20100;-85
2022/05/18 05:55:23;;;;;;;0.40;0.32;;;21.80;99.90;;;;;;5002940;28;20510;-85
2022/05/18 05:57:49;;;;;;;0.20;0.20;;;22.00;99.90;;;;;;5003395;28;20038;-85
2022/05/18 06:00:15;;;;;;;0.15;0.10;;;22.10;99.90;;;;;;5002740;28;20030;-85
2022/05/18 06:02:44;;;;;;;0.30;0.30;;;22.30;99.90;;;;;;5004855;28;20041;-85
2022/05/18 06:05:10;;;;;;;0.40;0.40;;;22.60;99.90;;;;;;5005090;28;20045;-85
2022/05/18 06:07:36;;;;;;;0.17;0.17;;;22.80;99.90;;;;;;4990191;28;20042;-85
2022/05/18 06:10:02;;;;;;;0.30;0.28;;;23.10;99.90;;;;;;5008807;28;20495;-86
2022/05/18 06:12:28;;;;;;;0.38;0.38;;;23.40;99.90;;;;;;5011431;28;20042;-86
2022/05/18 06:14:54;;;;;;;0.38;0.38;;;23.60;99.90;;;;;;5012773;28;20041;-85
2022/05/18 06:17:20;;;;;;;1.17;0.82;;;24.00;99.90;;;;;;5009970;28;20038;-85
2022/05/18 06:19:45;;;;;;;0.17;0.17;;;24.10;99.90;;;;;;5005156;28;20053;-85
2022/05/18 06:22:11;;;;;;;0.57;0.57;;;24.50;99.90;;;;;;4984550;28;20042;-81
2022/05/18 06:24:37;;;;;;;0.30;0.30;;;24.90;99.90;;;;;;5000651;28;20053;-81
2022/05/18 06:27:03;;;;;;;0.32;0.32;;;25.00;99.90;;;;;;4974715;28;20060;-81
2022/05/18 06:29:29;;;;;;;0.65;0.38;;;25.20;99.90;;;;;;4987049;28;20395;-81
2022/05/18 06:31:56;;;;;;;0.30;0.30;;;25.70;99.90;;;;;;5000791;28;20041;-81
2022/05/18 06:34:22;;;;;;;0.60;0.60;;;25.60;99.90;;;;;;5003175;28;20042;-81
2022/05/18 06:36:49;;;;;;;0.30;0.30;;;25.80;99.60;;;;;;5001722;28;20080;-80
2022/05/18 06:39:18;;;;;;;0.88;0.88;;;26.00;99.50;;;;;;4982494;28;20398;-85
2022/05/18 06:41:46;;;;;;;0.15;0.15;;;26.00;99.60;;;;;;5002804;28;20034;-85
2022/05/18 06:44:13;;;;;;;0.20;0.20;;;26.10;98.10;;;;;;4986789;28;20124;-85
2022/05/18 06:46:39;;;;;;;2.08;1.10;;;26.40;99.20;;;;;;4987844;28;20107;-85
2022/05/18 06:49:06;;;;;;;2.28;0.77;;;27.00;98.80;;;;;;5002773;28;20125;-86
2022/05/18 06:51:35;;;;;;;2.60;0.88;;;27.10;97.30;;;;;;5002002;28;20137;-86
2022/05/18 06:54:01;;;;;;;0.40;0.40;;;27.30;95.80;;;;;;5001296;28;20030;-85
2022/05/18 06:56:36;;;;;;;1.17;0.30;;;27.20;96.70;;;;;;4986237;28;20112;-83
2022/05/18 06:59:03;;;;;;;0.45;0.28;;;27.20;97.30;;;;;;4999909;28;20061;-83
2022/05/18 07:01:29;;;;;;;1.45;0.70;;;27.70;95.80;;;;;;5002722;28;20488;-84
2022/05/18 07:03:56;;;;;;;0.90;0.88;;;27.80;94.50;;;;;;5000961;28;20480;-83
2022/05/18 07:06:24;;;;;;;0.20;0.20;;;28.00;94.20;;;;;;5002712;28;20447;-83
2022/05/18 07:08:51;;;;;;;0.45;0.45;;;28.50;93.50;;;;;;5003230;28;20048;-83
2022/05/18 07:11:18;;;;;;;0.28;0.28;;;28.70;92.50;;;;;;5002241;28;20060;-83
2022/05/18 07:13:46;;;;;;;0.40;0.40;;;29.00;91.80;;;;;;5002690;28;20098;-83
2022/05/18 07:16:12;;;;;;;0.30;0.30;;;29.40;90.60;;;;;;5002021;28;20138;-83
2022/05/18 07:18:38;;;;;;;0.17;0.17;;;29.60;87.50;;;;;;5016812;28;20046;-84
2022/05/18 07:21:06;;;;;;;0.55;0.55;;;29.90;87.10;;;;;;5002510;28;20125;-83
2022/05/18 07:23:32;;;;;;;0.65;0.52;;;30.10;87.00;;;;;;5001294;28;21321;-84
2022/05/18 07:25:59;;;;;;;0.20;0.20;;;30.70;85.20;;;;;;4986999;28;20108;-84
2022/05/18 07:28:26;;;;;;;0.22;0.22;;;30.90;81.30;;;;;;5002859;28;20776;-84
2022/05/18 07:30:53;;;;;;;0.22;0.22;;;30.20;77.30;;;;;;5001969;28;20077;-83
2022/05/18 07:33:20;;;;;;;0.30;0.30;;;30.00;77.80;;;;;;5001864;28;20096;-83
2022/05/18 07:35:48;;;;;;;0.70;0.52;;;29.90;79.30;;;;;;5010204;28;20165;-83
2022/05/18 07:38:14;;;;;;;0.47;0.28;;;29.90;77.00;;;;;;4991573;28;20034;-83
2022/05/18 07:40:40;;;;;;;1.17;0.80;;;29.60;76.40;;;;;;5009440;28;20040;-83
2022/05/18 07:43:06;;;;;;;0.20;0.20;;;29.40;79.20;;;;;;5010727;28;20656;-83
2022/05/18 07:45:33;;;;;;;0.20;0.20;;;30.00;78.00;;;;;;5005798;28;20431;-85
2022/05/18 07:47:59;;;;;;;0.45;0.45;;;30.60;74.70;;;;;;5022219;28;20077;-86
2022/05/18 07:50:25;;;;;;;1.08;0.98;;;31.20;75.20;;;;;;4990773;28;20475;-85
2022/05/18 07:52:52;;;;;;;0.57;0.57;;;31.20;73.80;;;;;;5021419;28;20473;-86
2022/05/18 07:55:19;;;;;;;0.70;0.70;;;30.60;74.40;;;;;;5006370;28;20045;-86
2022/05/18 07:57:44;;;;;;;1.52;0.80;;;30.40;74.60;;;;;;4989115;28;20059;-85
2022/05/18 08:00:12;;;;;;;0.45;0.40;;;29.30;76.20;;;;;;5006290;28;20049;-86
2022/05/18 08:02:38;;;;;;;0.25;0.25;;;29.40;76.70;;;;;;5006411;28;20077;-86
2022/05/18 08:05:05;;;;;;;1.67;0.65;;;29.80;78.90;;;;;;5004566;28;20535;-86
2022/05/18 08:07:31;;;;;;;0.55;0.45;;;30.20;76.90;;;;;;5003139;28;20116;-86
2022/05/18 08:15:26;;;;;;;0.28;0.28;;;30.30;74.20;;;;;;5011130;28;20042;-86
2022/05/18 08:17:52;;;;;;;0.30;0.30;;;30.70;73.00;;;;;;5006262;28;20423;-86
2022/05/18 08:20:20;;;;;;;0.52;0.52;;;31.70;72.20;;;;;;4974432;28;20052;-82
2022/05/18 08:22:47;;;;;;;0.40;0.40;;;31.90;70.90;;;;;;5007817;28;20454;-82
2022/05/18 08:25:13;;;;;;;0.52;0.43;;;32.40;72.80;;;;;;5007180;28;20220;-82
2022/05/18 08:27:45;;;;;;;0.30;0.30;;;32.80;71.70;;;;;;5008000;28;20390;-82
2022/05/18 08:30:14;;;;;;;0.80;0.80;;;33.00;69.50;;;;;;4989185;28;20064;-82
2022/05/18 08:32:40;;;;;;;0.20;0.20;;;33.40;70.20;;;;;;4988371;28;20069;-82
2022/05/18 08:35:08;;;;;;;0.32;0.32;;;34.00;70.00;;;;;;5024150;28;20056;-82
2022/05/18 08:37:48;;;;;;;1.25;1.15;;;34.10;69.90;;;;;;4989809;28;20104;-86
2022/05/18 08:40:29;;;;;;;0.38;0.35;;;33.20;69.10;;;;;;4990882;28;20062;-84
2022/05/18 08:43:05;;;;;;;0.88;0.68;;;32.80;71.00;;;;;;5024291;28;20549;-84
2022/05/18 08:45:43;;;;;;;0.50;0.50;;;33.40;69.20;;;;;;5022281;28;20125;-84
2022/05/18 08:48:30;;;;;;;0.35;0.35;;;33.00;69.90;;;;;;5006094;28;20041;-84
2022/05/18 08:51:03;;;;;;;0.50;0.50;;;32.70;70.10;;;;;;4986870;28;20057;-84
2022/05/18 08:53:38;;;;;;;0.43;0.43;;;33.70;68.60;;;;;;5006128;28;20104;-87
2022/05/18 08:56:23;;;;;;;0.35;0.35;;;33.60;69.90;;;;;;5007503;28;20065;-87
2022/05/18 08:58:52;;;;;;;0.40;0.40;;;34.40;69.60;;;;;;5006480;28;20057;-87
2022/05/18 09:01:40;;;;;;;0.98;0.90;;;34.10;69.20;;;;;;5007158;28;20065;-87
2022/05/18 09:04:06;;;;;;;0.38;0.38;;;34.90;66.40;;;;;;5003441;28;20044;-87
2022/05/18 09:06:43;;;;;;;0.40;0.40;;;34.30;67.00;;;;;;4989200;28;20042;-87
2022/05/18 09:12:05;;;;;;;0.47;0.47;;;34.20;67.30;;;;;;5005425;28;20568;-83
2022/05/18 09:14:38;;;;;;;0.63;0.63;;;34.80;67.10;;;;;;5005060;28;20573;-83
2022/05/18 09:17:13;;;;;;;1.45;0.75;;;35.30;66.70;;;;;;5005396;28;20104;-83
2022/05/18 09:19:59;;;;;;;0.57;0.57;;;34.90;64.40;;;;;;4987070;28;20037;-83
2022/05/18 09:22:50;;;;;;;0.80;0.80;;;35.00;65.10;;;;;;5003815;28;20038;-83
2022/05/18 09:25:34;;;;;;;0.35;0.35;;;34.20;63.40;;;;;;5005822;28;20077;-84
2022/05/18 09:28:03;;;;;;;0.40;0.40;;;34.90;67.20;;;;;;4989243;28;20373;-85
2022/05/18 09:30:36;;;;;;;1.05;0.57;;;35.40;64.90;;;;;;5003246;28;20085;-84
2022/05/18 09:33:35;;;;;;;0.52;0.52;;;35.50;64.20;;;;;;5005901;28;20053;-84
2022/05/18 09:36:34;;;;;;;0.60;0.60;;;35.50;64.10;;;;;;5005560;28;20046;-84
2022/05/18 09:39:02;;;;;;;0.70;0.68;;;35.10;64.10;;;;;;5009750;28;20103;-85
2022/05/18 09:41:34;;;;;;;1.13;0.82;;;34.40;64.40;;;;;;5005432;28;20044;-85
2022/05/18 09:44:22;;;;;;;0.30;0.30;;;33.80;65.80;;;;;;5005804;28;20045;-85
2022/05/18 09:46:49;;;;;;;1.05;0.95;;;33.40;67.60;;;;;;5004328;28;20042;-84
2022/05/18 09:49:43;;;;;;;1.33;1.13;;;33.10;69.00;;;;;;5006025;28;20058;-86
2022/05/18 09:52:10;;;;;;;0.32;0.32;;;32.10;69.60;;;;;;5000095;28;20057;-85
2022/05/18 09:54:37;;;;;;;0.20;0.20;;;33.50;70.90;;;;;;5004794;28;20037;-85
2022/05/18 09:57:08;;;;;;;0.40;0.40;;;34.20;65.70;;;;;;5006388;28;20025;-84
2022/05/18 09:59:39;;;;;;;0.47;0.47;;;34.20;66.20;;;;;;5005346;28;20048;-84
2022/05/18 10:07:51;;;;;;;1.88;0.65;;;34.00;64.30;;;;;;5002406;28;20045;-84
2022/05/18 10:10:20;;;;;;;0.40;0.40;;;34.00;67.20;;;;;;5004400;28;20100;-85
2022/05/18 10:13:02;;;;;;;0.20;0.20;;;33.60;64.20;;;;;;5005752;28;20141;-84
2022/05/18 10:15:35;;;;;;;2.72;1.90;;;33.00;65.70;;;;;;5004862;28;20122;-84
2022/05/18 10:18:14;;;;;;;0.65;0.65;;;33.50;66.40;;;;;;5015939;28;20038;-85
2022/05/18 10:20:40;;;;;;;0.20;0.20;;;34.20;64.70;;;;;;5006892;28;20069;-85
2022/05/18 10:23:45;;;;;;;0.50;0.50;;;35.00;65.80;;;;;;5004872;28;20089;-85
2022/05/18 10:26:23;;;;;;;0.82;0.82;;;35.20;64.10;;;;;;5003358;28;20057;-88
2022/05/18 10:29:20;;;;;;;0.65;0.65;;;34.70;63.30;;;;;;5004950;28;20409;-85
2022/05/18 10:32:09;;;;;;;0.20;0.20;;;34.50;64.20;;;;;;5020822;28;20507;-85
2022/05/18 10:35:05;;;;;;;0.38;0.38;;;35.10;64.00;;;;;;5017367;28;20091;-87
2022/05/18 10:37:38;;;;;;;0.40;0.40;;;35.30;64.10;;;;;;4979446;28;21274;-87
2022/05/18 10:40:08;;;;;;;0.40;0.40;;;35.30;64.20;;;;;;4991161;28;20040;-87
2022/05/18 10:42:47;;;;;;;0.68;0.68;;;35.50;63.50;;;;;;5007382;28;20049;-88
2022/05/18 10:45:39;;;;;;;0.50;0.50;;;35.90;64.00;;;;;;5003367;28;20048;-86
2022/05/18 10:48:15;;;;;;;0.40;0.40;;;36.30;61.70;;;;;;5001791;28;20058;-88
2022/05/18 10:50:42;;;;;;;0.65;0.65;;;35.90;62.80;;;;;;5008495;28;20064;-86
2022/05/18 10:53:17;;;;;;;0.10;0.10;;;36.20;62.90;;;;;;4976437;28;20065;-86
2022/05/18 10:55:54;;;;;;;0.77;0.77;;;36.00;61.40;;;;;;4996297;28;20081;-86
2022/05/18 10:58:27;;;;;;;0.57;0.30;;;36.00;62.90;;;;;;5005707;28;20035;-86
2022/05/18 11:01:12;;;;;;;0.40;0.40;;;35.50;63.20;;;;;;4998005;28;20043;-86
2022/05/18 11:03:49;;;;;;;0.30;0.30;;;35.50;62.90;;;;;;5003119;28;20077;-86
2022/05/18 11:06:29;;;;;;;0.63;0.63;;;36.10;63.20;;;;;;5018346;28;20088;-88
2022/05/18 11:09:07;;;;;;;0.52;0.52;;;36.40;63.00;;;;;;5004059;28;20046;-88
2022/05/18 11:11:55;;;;;;;0.25;0.25;;;36.20;62.10;;;;;;4997104;28;20033;-87
2022/05/18 11:14:36;;;;;;;0.43;0.43;;;36.90;63.30;;;;;;5003861;28;20065;-91
2022/05/18 11:17:14;;;;;;;0.90;0.30;;;36.30;63.60;;;;;;5006489;28;20516;-86
2022/05/18 11:19:43;;;;;;;0.55;0.47;;;35.90;61.90;;;;;;5002550;28;20061;-86
2022/05/18 11:22:36;;;;;;;0.50;0.50;;;35.60;62.80;;;;;;5020902;28;20558;-83
2022/05/18 11:25:22;;;;;;;0.28;0.28;;;35.60;63.40;;;;;;5019690;28;20046;-83
2022/05/18 11:27:59;;;;;;;0.73;0.73;;;35.30;62.90;;;;;;5005871;28;20072;-83
2022/05/18 11:30:34;;;;;;;0.43;0.43;;;33.80;64.60;;;;;;5005558;28;20081;-83
2022/05/18 11:33:18;;;;;;;;;;;34.00;64.70;;;;;;5006143;28;20084;-83
2022/05/18 11:35:59;;;;;;;0.65;0.65;;;34.30;65.10;;;;;;4989112;28;19925;-83
2022/05/18 11:38:59;;;;;;;0.60;0.60;;;33.40;67.10;;;;;;5022624;28;20081;-83
2022/05/18 11:41:32;;;;;;;2.22;1.30;;;33.60;66.60;;;;;;5020668;28;20045;-86
2022/05/18 11:44:07;;;;;;;1.20;1.00;;;33.60;66.30;;;;;;5007203;28;20056;-86
2022/05/18 11:46:38;;;;;;;0.60;0.60;;;33.40;66.00;;;;;;5007947;28;20718;-85
2022/05/18 11:49:13;;;;;;;0.75;0.43;;;33.10;66.40;;;;;;5007508;28;20586;-86
2022/05/18 11:52:22;;;;;;;0.30;0.30;;;33.40;67.80;;;;;;5009972;28;20088;-86
2022/05/18 11:55:13;;;;;;;4.57;0.68;;;33.30;66.10;;;;;;4991788;28;20437;-86
2022/05/18 11:57:50;;;;;;;0.40;0.40;;;32.40;66.80;;;;;;5024117;28;20042;-83
2022/05/18 12:03:51;;;;;;;0.30;0.30;;;32.20;66.50;;;;;;5021737;28;20493;-83
2022/05/18 12:06:42;;;;;;;0.20;0.20;;;32.10;69.30;;;;;;4981264;28;20550;-83
2022/05/18 12:09:45;;;;;;;8.13;0.77;;;31.70;69.70;;;;;;4990039;28;20034;-83
2022/05/18 12:12:41;;;;;;;1.23;0.88;;;31.70;70.70;;;;;;4990701;28;20052;-86
2022/05/18 12:15:20;;;;;;;2.20;2.00;;;31.00;70.80;;;;;;5009219;28;20042;-84
2022/05/18 12:17:54;;;;;;;0.80;0.80;;;31.10;72.00;;;;;;5008271;28;20128;-84
2022/05/18 12:20:50;;;;;;;1.15;1.08;;;30.70;71.20;;;;;;4992366;28;20081;-84
2022/05/18 12:23:18;;;;;;;0.95;0.60;;;30.30;71.80;;;;;;5007200;28;20085;-84
2022/05/18 12:25:45;;;;;;;0.57;0.57;;;29.90;74.10;;;;;;5009028;28;20033;-85
2022/05/18 12:28:12;;;;;;;1.95;0.63;;;30.20;76.80;;;;;;5023232;28;20046;-84
2022/05/18 12:30:41;;;;;;;0.20;0.20;;;30.50;73.30;;;;;;5008736;28;20123;-85
2022/05/18 12:33:09;;;;;;;0.70;0.70;;;30.90;72.70;;;;;;5006662;28;20128;-84
2022/05/18 12:35:46;;;;;;;0.73;0.73;;;30.80;72.40;;;;;;5006017;28;20038;-85
2022/05/18 12:38:40;;;;;;;1.13;1.05;;;30.60;71.90;;;;;;5008528;28;20057;-84
2022/05/18 12:41:11;;;;;;;0.90;0.88;;;30.40;71.70;;;;;;4987522;28;20086;-85
2022/05/18 12:43:49;;;;;;;1.70;1.40;;;29.70;72.40;;;;;;5010013;28;20567;-84
2022/05/18 12:46:14;;;;;;;0.30;0.22;;;29.20;73.30;;;;;;4989714;28;20052;-82
2022/05/18 12:48:50;;;;;;;0.98;0.75;;;28.70;74.70;;;;;;5009183;28;20109;-83
2022/05/18 12:51:32;;;;;;;0.43;0.40;;;28.70;75.00;;;;;;5010846;28;20059;-83
2022/05/18 12:54:10;;;;;;;1.23;0.85;;;28.60;75.80;;;;;;4993713;28;20594;-83
2022/05/18 12:56:35;;;;;;;0.52;0.52;;;28.50;77.30;;;;;;5011491;28;20480;-83
2022/05/18 12:59:08;;;;;;;0.52;0.43;;;28.80;75.70;;;;;;5006517;28;20056;-83
2022/05/18 13:02:03;;;;;;;0.65;0.63;;;29.20;75.00;;;;;;5009313;28;20048;-83
2022/05/18 13:04:42;;;;;;;0.63;0.43;;;29.20;74.60;;;;;;5026190;28;20116;-84
2022/05/18 13:07:25;;;;;;;0.88;0.88;;;28.90;74.20;;;;;;4991483;28;20062;-85
2022/05/18 13:10:03;;;;;;;0.55;0.55;;;29.10;75.40;;;;;;5009512;28;20056;-84
2022/05/18 13:12:35;;;;;;;0.57;0.52;;;28.90;74.10;;;;;;5005996;28;20048;-84
2022/05/18 13:15:21;;;;;;;1.52;0.85;;;28.60;75.30;;;;;;4992779;28;20044;-84
2022/05/18 13:18:00;;;;;;;1.17;1.08;;;28.60;76.60;;;;;;5024177;28;20083;-84
2022/05/18 13:20:26;;;;;;;0.55;0.30;;;28.70;76.80;;;;;;5009522;28;20036;-84
2022/05/18 13:23:24;;;;;;;0.65;0.65;;;28.90;75.40;;;;;;5005878;28;20049;-84
2022/05/18 13:26:00;;;;;;;0.65;0.65;;;28.60;74.40;;;;;;4986463;28;20412;-84
2022/05/18 13:28:31;;;;;;;0.70;0.68;;;28.30;75.70;;;;;;5026735;28;20048;-83